createdAt,value
2018-09-01T00:00:04.474Z,97817.64
2018-09-01T00:02:32.186Z,97806.30
2018-09-01T00:04:59.973Z,97804.16
2018-09-01T00:07:27.781Z,97792.02
2018-09-01T00:09:55.588Z,97796.06
2018-09-01T00:12:23.403Z,97797.19
2018-09-01T00:14:51.109Z,97799.08
2018-09-01T00:17:24.463Z,97801.78
2018-09-01T00:19:52.414Z,97804.48
2018-09-01T00:22:20.111Z,97801.23
2018-09-01T00:24:47.788Z,97802.58
2018-09-01T00:27:15.550Z,97798.05
2018-09-01T00:29:43.355Z,97791.05
2018-09-01T00:32:12.056Z,97791.31
2018-09-01T00:34:39.793Z,97794.27
2018-09-01T00:37:07.562Z,97796.45
2018-09-01T00:39:39.588Z,97801.33
2018-09-01T00:42:07.383Z,97794.08
2018-09-01T00:44:35.103Z,97792.41
2018-09-01T00:47:02.815Z,97796.45
2018-09-01T00:49:30.555Z,97794.62
2018-09-01T00:51:58.337Z,97799.47
2018-09-01T00:54:27.918Z,97790.03
2018-09-01T00:56:55.606Z,97780.59
2018-09-01T00:59:23.246Z,97777.66
2018-09-01T01:01:50.980Z,97777.98
2018-09-01T01:04:18.892Z,97782.58
2018-09-01T01:06:46.672Z,97781.78
2018-09-01T01:09:14.545Z,97780.43
2018-09-01T01:11:42.298Z,97784.73
2018-09-01T01:14:10.108Z,97789.88
2018-09-01T01:16:37.873Z,97792.13
2018-09-01T01:19:05.642Z,97791.00
2018-09-01T01:21:33.621Z,97793.70
2018-09-01T01:24:01.336Z,97795.27
2018-09-01T01:26:29.081Z,97802.66
2018-09-01T01:28:56.856Z,97804.27
2018-09-01T01:31:24.607Z,97804.48
2018-09-01T01:33:52.360Z,97811.78
2018-09-01T01:36:20.153Z,97798.61
2018-09-01T01:38:48.005Z,97788.63
2018-09-01T01:41:15.772Z,97801.09
2018-09-01T01:43:43.607Z,97797.62
2018-09-01T01:46:11.336Z,97802.44
2018-09-01T01:48:39.376Z,97798.39
2018-09-01T01:51:07.202Z,97805.13
2018-09-01T01:53:34.993Z,97807.06
2018-09-01T01:56:02.874Z,97817.27
2018-09-01T01:58:30.689Z,97808.63
2018-09-01T02:00:58.671Z,97801.41
2018-09-01T02:03:26.395Z,97800.64
2018-09-01T02:05:54.221Z,97794.98
2018-09-01T02:08:21.933Z,97801.19
2018-09-01T02:10:49.676Z,97794.98
2018-09-01T02:13:17.413Z,97791.42
2018-09-01T02:15:45.205Z,97798.48
2018-09-01T02:18:13.498Z,97796.11
2018-09-01T02:20:41.261Z,97792.61
2018-09-01T02:23:09.041Z,97792.29
2018-09-01T02:25:36.894Z,97786.19
2018-09-01T02:28:04.636Z,97791.27
2018-09-01T02:30:32.378Z,97787.22
2018-09-01T02:33:00.094Z,97791.84
2018-09-01T02:35:27.943Z,97790.23
2018-09-01T02:37:55.740Z,97789.14
2018-09-01T02:40:23.601Z,97792.94
2018-09-01T02:42:51.264Z,97800.80
2018-09-01T02:45:18.982Z,97797.88
2018-09-01T02:47:46.693Z,97797.30
2018-09-01T02:50:14.363Z,97805.97
2018-09-01T02:52:42.135Z,97802.47
2018-09-01T02:55:09.904Z,97812.14
2018-09-01T02:57:37.574Z,97798.43
2018-09-01T03:00:09.607Z,97806.52
2018-09-01T03:02:43.389Z,97805.72
2018-09-01T03:05:11.310Z,97801.99
2018-09-01T03:07:39.039Z,97810.34
2018-09-01T03:10:06.846Z,97811.44
2018-09-01T03:12:34.600Z,97809.31
2018-09-01T03:15:02.302Z,97818.21
2018-09-01T03:17:30.100Z,97821.45
2018-09-01T03:19:57.867Z,97817.80
2018-09-01T03:22:25.657Z,97817.63
2018-09-01T03:24:53.386Z,97814.13
2018-09-01T03:27:21.247Z,97817.95
2018-09-01T03:29:48.894Z,97811.69
2018-09-01T03:32:16.581Z,97812.23
2018-09-01T03:34:44.216Z,97809.06
2018-09-01T03:37:11.833Z,97811.21
2018-09-01T03:39:39.474Z,97806.05
2018-09-01T03:42:07.292Z,97810.66
2018-09-01T03:44:35.038Z,97807.16
2018-09-01T03:47:02.832Z,97814.23
2018-09-01T03:49:30.623Z,97814.23
2018-09-01T03:51:58.408Z,97816.13
2018-09-01T03:54:26.192Z,97818.05
2018-09-01T03:56:54.075Z,97823.45
2018-09-01T03:59:21.829Z,97815.73
2018-09-01T04:01:49.635Z,97822.23
2018-09-01T04:04:17.340Z,97826.37
2018-09-01T04:06:45.125Z,97834.23
2018-09-01T04:09:13.291Z,97828.04
2018-09-01T04:11:40.990Z,97826.14
2018-09-01T04:14:08.766Z,97823.19
2018-09-01T04:16:36.553Z,97825.44
2018-09-01T04:19:17.256Z,97823.52
2018-09-01T04:21:45.442Z,97822.16
2018-09-01T04:24:13.461Z,97815.42
2018-09-01T04:26:41.186Z,97816.00
2018-09-01T04:29:08.884Z,97819.78
2018-09-01T04:31:36.690Z,97813.05
2018-09-01T04:34:04.369Z,97822.48
2018-09-01T04:36:32.008Z,97820.59
2018-09-01T04:38:59.674Z,97817.67
2018-09-01T04:41:27.475Z,97824.41
2018-09-01T04:43:55.333Z,97827.66
2018-09-01T04:46:23.080Z,97834.39
2018-09-01T04:48:50.779Z,97837.96
2018-09-01T04:51:18.597Z,97837.19
2018-09-01T04:53:46.342Z,97827.75
2018-09-01T04:56:14.062Z,97823.13
2018-09-01T04:58:41.862Z,97818.05
2018-09-01T05:01:10.120Z,97815.45
2018-09-01T05:03:38.088Z,97815.67
2018-09-01T05:06:05.774Z,97813.55
2018-09-01T05:08:33.521Z,97815.61
2018-09-01T05:11:01.246Z,97819.41
2018-09-01T05:13:28.972Z,97825.83
2018-09-01T05:15:56.679Z,97822.67
2018-09-01T05:18:24.442Z,97831.86
2018-09-01T05:20:52.107Z,97834.39
2018-09-01T05:23:19.808Z,97838.28
2018-09-01T05:25:47.550Z,97834.30
2018-09-01T05:28:15.315Z,97837.09
2018-09-01T05:30:43.057Z,97837.19
2018-09-01T05:33:10.749Z,97827.75
2018-09-01T05:35:39.042Z,97825.38
2018-09-01T05:38:06.700Z,97826.72
2018-09-01T05:40:34.380Z,97830.51
2018-09-01T05:43:02.050Z,97835.13
2018-09-01T05:45:29.732Z,97842.10
2018-09-01T05:47:57.414Z,97848.30
2018-09-01T05:50:25.155Z,97854.46
2018-09-01T05:52:52.921Z,97853.69
2018-09-01T05:55:20.697Z,97859.95
2018-09-01T05:57:48.481Z,97855.10
2018-09-01T06:00:20.402Z,97858.06
2018-09-01T06:02:48.770Z,97858.60
2018-09-01T06:05:16.578Z,97865.34
2018-09-01T06:07:44.346Z,97860.27
2018-09-01T06:10:12.040Z,97855.20
2018-09-01T06:12:39.694Z,97867.02
2018-09-01T06:15:07.638Z,97868.91
2018-09-01T06:17:35.856Z,97868.81
2018-09-01T06:20:03.565Z,97871.03
2018-09-01T06:22:31.476Z,97865.51
2018-09-01T06:24:59.306Z,97874.69
2018-09-01T06:27:34.437Z,97866.69
2018-09-01T06:30:02.580Z,97866.47
2018-09-01T06:32:30.457Z,97873.44
2018-09-01T06:34:58.252Z,97867.23
2018-09-01T06:37:26.043Z,97863.20
2018-09-01T06:39:53.735Z,97859.72
2018-09-01T06:42:21.552Z,97860.50
2018-09-01T06:44:49.262Z,97857.48
2018-09-01T06:47:17.350Z,97852.09
2018-09-01T06:49:45.054Z,97857.42
2018-09-01T06:52:12.780Z,97856.06
2018-09-01T06:54:40.512Z,97860.66
2018-09-01T06:57:08.171Z,97861.52
2018-09-01T06:59:35.893Z,97877.64
2018-09-01T07:02:03.595Z,97883.10
2018-09-01T07:04:31.284Z,97883.68
2018-09-01T07:06:58.951Z,97892.86
2018-09-01T07:09:26.617Z,97892.31
2018-09-01T07:11:54.307Z,97888.81
2018-09-01T07:14:22.054Z,97901.20
2018-09-01T07:16:49.686Z,97903.91
2018-09-01T07:19:17.387Z,97902.78
2018-09-01T07:21:45.297Z,97909.30
2018-09-01T07:24:13.010Z,97915.23
2018-09-01T07:26:40.694Z,97920.41
2018-09-01T07:29:08.488Z,97918.57
2018-09-01T07:31:37.512Z,97913.41
2018-09-01T07:34:04.894Z,97923.10
2018-09-01T07:36:32.631Z,97921.98
2018-09-01T07:39:00.314Z,97921.98
2018-09-01T07:41:28.126Z,97918.80
2018-09-01T07:43:55.769Z,97917.70
2018-09-01T07:46:23.433Z,97919.05
2018-09-01T07:48:51.065Z,97923.88
2018-09-01T07:51:19.042Z,97921.75
2018-09-01T07:53:46.677Z,97918.73
2018-09-01T07:56:14.368Z,97919.77
2018-09-01T07:58:41.961Z,97923.23
2018-09-01T08:01:09.762Z,97922.15
2018-09-01T08:03:37.408Z,97923.72
2018-09-01T08:06:05.046Z,97927.55
2018-09-01T08:08:32.682Z,97935.63
2018-09-01T08:11:00.313Z,97939.10
2018-09-01T08:13:28.261Z,97942.12
2018-09-01T08:15:55.921Z,97945.94
2018-09-01T08:18:23.557Z,97948.09
2018-09-01T08:20:51.262Z,97944.36
2018-09-01T08:23:18.884Z,97955.38
2018-09-01T08:25:46.605Z,97958.16
2018-09-01T08:28:14.298Z,97963.55
2018-09-01T08:30:41.938Z,97960.05
2018-09-01T08:33:09.578Z,97962.27
2018-09-01T08:35:37.229Z,97965.22
2018-09-01T08:38:04.882Z,97965.99
2018-09-01T08:40:32.514Z,97961.41
2018-09-01T08:43:00.155Z,97955.47
2018-09-01T08:45:28.144Z,97957.84
2018-09-01T08:47:55.774Z,97957.84
2018-09-01T08:50:23.408Z,97956.95
2018-09-01T08:52:51.118Z,97961.25
2018-09-01T08:55:18.771Z,97960.22
2018-09-01T08:57:46.430Z,97958.56
2018-09-01T09:00:14.197Z,97960.68
2018-09-01T09:02:41.825Z,97961.25
2018-09-01T09:05:12.789Z,97961.25
2018-09-01T09:07:40.465Z,97963.63
2018-09-01T09:10:08.105Z,97971.95
2018-09-01T09:12:35.744Z,97967.81
2018-09-01T09:15:03.432Z,97971.86
2018-09-01T09:17:31.099Z,97971.55
2018-09-01T09:19:58.724Z,97970.29
2018-09-01T09:22:26.438Z,97968.85
2018-09-01T09:24:54.074Z,97966.73
2018-09-01T09:27:21.734Z,97974.50
2018-09-01T09:29:49.515Z,97982.11
2018-09-01T09:32:17.136Z,97978.92
2018-09-01T09:34:44.829Z,97981.17
2018-09-01T09:37:12.445Z,97985.53
2018-09-01T09:39:40.109Z,97986.08
2018-09-01T09:42:07.740Z,97983.61
2018-09-01T09:44:35.410Z,97982.25
2018-09-01T09:47:03.142Z,97983.61
2018-09-01T09:49:30.785Z,97980.68
2018-09-01T09:51:58.432Z,97984.18
2018-09-01T09:54:26.158Z,97980.77
2018-09-01T09:56:53.797Z,97980.68
2018-09-01T09:59:21.545Z,97982.34
2018-09-01T10:01:49.178Z,97974.80
2018-09-01T10:04:16.864Z,97979.42
2018-09-01T10:06:44.513Z,97982.89
2018-09-01T10:09:14.321Z,97976.15
2018-09-01T10:11:42.775Z,97975.38
2018-09-01T10:14:10.876Z,97976.15
2018-09-01T10:16:38.842Z,97975.38
2018-09-01T10:19:06.497Z,97960.68
2018-09-01T10:21:34.129Z,97954.97
2018-09-01T10:24:01.836Z,97950.06
2018-09-01T10:26:29.457Z,97957.12
2018-09-01T10:28:57.077Z,97958.23
2018-09-01T10:31:24.719Z,97957.75
2018-09-01T10:33:52.355Z,97965.62
2018-09-01T10:36:20.210Z,97972.67
2018-09-01T10:38:48.002Z,97984.33
2018-09-01T10:41:15.724Z,97973.54
2018-09-01T10:43:43.479Z,97981.41
2018-09-01T10:46:11.206Z,97985.45
2018-09-01T10:48:38.888Z,97989.49
2018-09-01T10:51:06.636Z,97985.99
2018-09-01T10:53:34.335Z,97988.46
2018-09-01T10:56:02.160Z,97991.16
2018-09-01T10:58:29.881Z,97988.78
2018-09-01T11:00:57.609Z,97996.32
2018-09-01T11:03:25.331Z,97992.82
2018-09-01T11:05:53.058Z,97992.82
2018-09-01T11:08:20.801Z,97998.22
2018-09-01T11:10:48.603Z,97998.67
2018-09-01T11:13:16.376Z,98003.30
2018-09-01T11:15:44.084Z,98001.95
2018-09-01T11:18:11.802Z,98003.84
2018-09-01T11:20:39.520Z,98005.98
2018-09-01T11:23:07.199Z,98003.30
2018-09-01T11:25:34.969Z,98005.19
2018-09-01T11:28:02.689Z,98008.11
2018-09-01T11:30:30.468Z,98011.38
2018-09-01T11:32:58.218Z,98010.58
2018-09-01T11:35:25.973Z,98015.43
2018-09-01T11:37:53.712Z,98008.69
2018-09-01T11:40:21.330Z,98003.61
2018-09-01T11:42:49.095Z,98007.88
2018-09-01T11:45:16.711Z,98003.61
2018-09-01T11:47:44.348Z,98000.11
2018-09-01T11:50:12.072Z,98009.00
2018-09-01T11:52:39.680Z,98010.89
2018-09-01T11:55:07.555Z,98009.32
2018-09-01T11:57:35.583Z,98011.47
2018-09-01T12:00:03.652Z,98003.70
2018-09-01T12:02:31.722Z,98000.69
2018-09-01T12:04:59.743Z,98002.80
2018-09-01T12:07:28.058Z,98005.27
2018-09-01T12:09:56.133Z,97999.34
2018-09-01T12:12:25.558Z,98004.23
2018-09-01T12:14:54.053Z,98003.20
2018-09-01T12:17:22.179Z,98005.05
2018-09-01T12:22:17.257Z,97999.66
2018-09-01T12:24:44.887Z,97997.59
2018-09-01T12:32:06.506Z,97996.78
2018-09-01T12:37:00.760Z,98006.45
2018-09-01T12:39:28.406Z,98005.10
2018-09-01T12:41:56.074Z,98004.78
2018-09-01T12:44:23.701Z,98001.63
2018-09-01T12:46:51.395Z,98009.72
2018-09-01T12:49:19.117Z,98009.14
2018-09-01T12:51:46.764Z,98007.25
2018-09-01T12:54:14.407Z,98014.54
2018-09-01T12:59:08.898Z,98011.30
2018-09-01T13:01:36.905Z,98012.88
2018-09-01T13:04:04.689Z,98000.28
2018-09-01T13:11:25.679Z,98009.14
2018-09-01T13:13:53.511Z,98006.22
2018-09-01T13:16:21.146Z,98005.91
2018-09-01T13:18:48.806Z,98005.91
2018-09-01T13:21:16.498Z,98008.38
2018-09-01T13:23:44.126Z,98011.07
2018-09-01T13:26:11.759Z,98012.16
2018-09-01T13:28:39.422Z,98015.89
2018-09-01T13:31:07.049Z,98021.28
2018-09-01T13:33:34.913Z,98023.75
2018-09-01T13:36:02.561Z,98026.77
2018-09-01T13:38:30.267Z,98022.17
2018-09-01T13:40:57.949Z,98022.71
2018-09-01T13:43:25.576Z,98029.45
2018-09-01T13:45:53.261Z,98030.80
2018-09-01T13:48:20.897Z,98030.26
2018-09-01T13:50:48.524Z,98029.23
2018-09-01T13:53:16.171Z,98030.00
2018-09-01T13:55:43.814Z,98026.53
2018-09-01T13:58:11.444Z,98032.16
2018-09-01T14:00:39.125Z,98031.12
2018-09-01T14:03:06.799Z,98028.19
2018-09-01T14:05:34.462Z,98028.97
2018-09-01T14:08:02.085Z,98030.62
2018-09-01T14:10:29.725Z,98028.73
2018-09-01T14:12:57.368Z,98032.78
2018-09-01T14:15:25.031Z,98034.67
2018-09-01T14:17:52.669Z,98028.51
2018-09-01T14:20:20.298Z,98025.81
2018-09-01T14:22:48.020Z,98025.23
2018-09-01T14:25:15.662Z,98020.88
2018-09-01T14:27:43.298Z,98020.33
2018-09-01T14:30:10.917Z,98012.33
2018-09-01T14:32:38.602Z,98010.98
2018-09-01T14:35:07.021Z,98017.15
2018-09-01T14:37:34.932Z,98020.96
2018-09-01T14:40:02.587Z,98022.00
2018-09-01T14:42:30.210Z,98020.16
2018-09-01T14:44:57.957Z,98025.81
2018-09-01T14:47:25.663Z,98021.77
2018-09-01T14:49:53.249Z,98022.86
2018-09-01T14:52:21.026Z,98030.94
2018-09-01T14:54:48.673Z,98030.72
2018-09-01T14:57:16.727Z,98029.59
2018-09-01T14:59:44.434Z,98031.83
2018-09-01T15:02:12.105Z,98038.00
2018-09-01T15:04:39.773Z,98032.61
2018-09-01T15:07:07.450Z,98035.56
2018-09-01T15:09:35.071Z,98029.36
2018-09-01T15:12:02.757Z,98033.18
2018-09-01T15:14:30.493Z,98035.62
2018-09-01T15:16:58.108Z,98029.14
2018-09-01T15:19:25.731Z,98033.18
2018-09-01T15:21:53.417Z,98042.62
2018-09-01T15:24:21.057Z,98041.58
2018-09-01T15:26:48.919Z,98043.48
2018-09-01T15:29:16.559Z,98038.08
2018-09-01T15:31:44.213Z,98042.93
2018-09-01T15:34:11.920Z,98043.48
2018-09-01T15:36:39.586Z,98042.67
2018-09-01T15:39:07.321Z,98051.02
2018-09-01T15:41:35.084Z,98051.33
2018-09-01T15:44:02.840Z,98048.87
2018-09-01T15:46:30.602Z,98043.79
2018-09-01T15:48:58.487Z,98042.67
2018-09-01T15:51:26.189Z,98040.28
2018-09-01T15:53:53.952Z,98043.79
2018-09-01T15:56:21.758Z,98041.89
2018-09-01T15:58:49.912Z,98027.06
2018-09-01T16:01:17.623Z,98032.77
2018-09-01T16:03:45.408Z,98030.62
2018-09-01T16:06:13.186Z,98033.55
2018-09-01T16:08:40.887Z,98037.59
2018-09-01T16:11:08.617Z,98040.60
2018-09-01T16:13:36.870Z,98041.09
2018-09-01T16:16:04.592Z,98044.10
2018-09-01T16:18:32.286Z,98049.72
2018-09-01T16:21:00.019Z,98044.91
2018-09-01T16:23:27.637Z,98043.88
2018-09-01T16:25:55.295Z,98043.30
2018-09-01T16:28:22.993Z,98042.84
2018-09-01T16:30:50.680Z,98042.52
2018-09-01T16:33:18.320Z,98045.77
2018-09-01T16:35:45.949Z,98049.00
2018-09-01T16:38:13.602Z,98046.30
2018-09-01T16:40:41.260Z,98048.45
2018-09-01T16:43:08.911Z,98050.61
2018-09-01T16:45:36.551Z,98040.69
2018-09-01T16:48:04.189Z,98040.69
2018-09-01T16:50:31.863Z,98039.56
2018-09-01T16:52:59.461Z,98038.48
2018-09-01T16:55:27.094Z,98031.25
2018-09-01T16:57:54.726Z,98032.59
2018-09-01T17:00:22.427Z,98035.84
2018-09-01T17:02:50.067Z,98034.26
2018-09-01T17:05:17.703Z,98031.33
2018-09-01T17:07:45.328Z,98032.69
2018-09-01T17:10:13.037Z,98027.29
2018-09-01T17:12:40.795Z,98023.79
2018-09-01T17:15:08.978Z,98024.33
2018-09-01T17:17:36.617Z,98022.21
2018-09-01T17:20:04.634Z,98028.38
2018-09-01T17:22:32.348Z,98031.38
2018-09-01T17:25:00.111Z,98037.03
2018-09-01T17:27:27.746Z,98035.69
2018-09-01T17:29:55.627Z,98031.70
2018-09-01T17:32:23.354Z,98035.74
2018-09-01T17:34:51.077Z,98035.52
2018-09-01T17:37:18.749Z,98041.13
2018-09-01T17:39:46.966Z,98040.91
2018-09-01T17:42:14.642Z,98038.78
2018-09-01T17:44:45.830Z,98040.91
2018-09-01T17:47:13.577Z,98047.92
2018-09-01T17:49:41.449Z,98052.55
2018-09-01T17:52:09.093Z,98046.34
2018-09-01T17:54:36.794Z,98048.23
2018-09-01T17:57:04.494Z,98046.89
2018-09-01T17:59:32.138Z,98050.16
2018-09-01T18:01:59.979Z,98053.08
2018-09-01T18:04:27.666Z,98050.16
2018-09-01T18:06:55.310Z,98048.81
2018-09-01T18:09:23.365Z,98052.85
2018-09-01T18:11:51.292Z,98052.85
2018-09-01T18:14:19.255Z,98059.83
2018-09-01T18:16:47.006Z,98057.67
2018-09-01T18:19:14.974Z,98058.48
2018-09-01T18:21:42.679Z,98055.86
2018-09-01T18:24:10.444Z,98062.60
2018-09-01T18:26:38.646Z,98045.08
2018-09-01T18:29:06.556Z,98050.78
2018-09-01T18:31:34.297Z,98053.48
2018-09-01T18:34:02.090Z,98065.30
2018-09-01T18:36:29.794Z,98056.41
2018-09-01T18:38:57.987Z,98056.41
2018-09-01T18:41:25.885Z,98057.26
2018-09-01T18:43:53.695Z,98064.48
2018-09-01T18:46:21.405Z,98071.23
2018-09-01T18:48:49.562Z,98072.27
2018-09-01T18:51:17.818Z,98080.66
2018-09-01T18:53:45.768Z,98075.27
2018-09-01T18:56:13.666Z,98075.50
2018-09-01T18:58:41.323Z,98076.08
2018-09-01T19:01:09.108Z,98083.05
2018-09-01T19:03:37.746Z,98086.05
2018-09-01T19:06:05.746Z,98089.06
2018-09-01T19:08:33.438Z,98089.78
2018-09-01T19:11:01.256Z,98094.94
2018-09-01T19:13:29.487Z,98095.25
2018-09-01T19:15:57.893Z,98088.25
2018-09-01T19:18:25.830Z,98092.56
2018-09-01T19:20:53.477Z,98090.33
2018-09-01T19:23:21.101Z,98093.10
2018-09-01T19:25:49.490Z,98089.38
2018-09-01T19:28:17.852Z,98092.61
2018-09-01T19:30:45.925Z,98098.49
2018-09-01T19:33:13.632Z,98103.88
2018-09-01T19:35:41.373Z,98101.50
2018-09-01T19:38:09.409Z,98097.53
2018-09-01T19:40:37.702Z,98102.77
2018-09-01T19:43:05.849Z,98100.16
2018-09-01T19:45:33.665Z,98091.03
2018-09-01T19:48:01.193Z,98090.80
2018-09-01T19:50:28.970Z,98096.19
2018-09-01T19:52:56.659Z,98091.34
2018-09-01T19:55:24.536Z,98092.19
2018-09-01T19:57:52.197Z,98095.61
2018-09-01T20:00:19.934Z,98089.14
2018-09-01T20:02:47.874Z,98089.91
2018-09-01T20:05:15.694Z,98084.30
2018-09-01T20:07:44.238Z,98089.99
2018-09-01T20:10:11.946Z,98090.53
2018-09-01T20:12:39.793Z,98087.06
2018-09-01T20:15:07.477Z,98084.11
2018-09-01T20:17:35.193Z,98085.72
2018-09-01T20:20:02.975Z,98072.55
2018-09-01T20:22:30.688Z,98076.83
2018-09-01T20:24:58.382Z,98077.14
2018-09-01T20:27:26.114Z,98074.45
2018-09-01T20:29:54.019Z,98071.75
2018-09-01T20:32:21.686Z,98066.13
2018-09-01T20:34:49.448Z,98065.87
2018-09-01T20:37:18.481Z,98060.79
2018-09-01T20:39:46.955Z,98063.17
2018-09-01T20:42:15.231Z,98070.48
2018-09-01T20:44:42.981Z,98065.87
2018-09-01T20:47:10.706Z,98062.94
2018-09-01T20:49:38.473Z,98063.98
2018-09-01T20:52:06.348Z,98062.14
2018-09-01T20:54:34.025Z,98069.45
2018-09-01T20:57:01.789Z,98072.69
2018-09-01T20:59:29.593Z,98071.88
2018-09-01T21:01:57.282Z,98068.41
2018-09-01T21:04:25.009Z,98070.22
2018-09-01T21:06:52.761Z,98068.88
2018-09-01T21:09:20.493Z,98061.67
2018-09-01T21:11:48.246Z,98069.76
2018-09-01T21:14:16.010Z,98073.23
2018-09-01T21:16:43.879Z,98076.23
2018-09-01T21:19:11.507Z,98075.45
2018-09-01T21:21:39.243Z,98073.00
2018-09-01T21:24:06.956Z,98069.80
2018-09-01T21:26:34.704Z,98066.57
2018-09-01T21:29:02.423Z,98065.22
2018-09-01T21:31:30.185Z,98065.77
2018-09-01T21:33:57.925Z,98065.53
2018-09-01T21:36:26.246Z,98065.53
2018-09-01T21:38:54.025Z,98057.14
2018-09-01T21:41:21.737Z,98056.91
2018-09-01T21:43:49.896Z,98054.75
2018-09-01T21:46:17.588Z,98055.30
2018-09-01T21:48:45.404Z,98060.14
2018-09-01T21:51:13.068Z,98052.91
2018-09-01T21:53:40.706Z,98042.40
2018-09-01T21:56:08.452Z,98051.26
2018-09-01T21:58:36.158Z,98047.30
2018-09-01T22:01:09.155Z,98048.88
2018-09-01T22:03:41.275Z,98045.64
2018-09-01T22:06:09.011Z,98044.60
2018-09-01T22:08:36.794Z,98042.14
2018-09-01T22:11:04.621Z,98041.91
2018-09-01T22:13:32.358Z,98040.02
2018-09-01T22:16:00.027Z,98039.21
2018-09-01T22:18:27.758Z,98036.52
2018-09-01T22:20:55.491Z,98035.17
2018-09-01T22:23:23.233Z,98034.36
2018-09-01T22:25:50.970Z,98035.17
2018-09-01T22:28:18.733Z,98035.25
2018-09-01T22:30:46.404Z,98039.52
2018-09-01T22:33:14.131Z,98033.33
2018-09-01T22:35:41.910Z,98025.33
2018-09-01T22:38:09.622Z,98021.55
2018-09-01T22:40:37.308Z,98026.94
2018-09-01T22:43:05.024Z,98021.78
2018-09-01T22:45:32.772Z,98020.74
2018-09-01T22:48:00.457Z,98026.36
2018-09-01T22:50:28.193Z,98031.98
2018-09-01T22:52:55.860Z,98022.63
2018-09-01T22:55:23.613Z,98017.24
2018-09-01T22:57:51.294Z,98014.01
2018-09-01T23:00:19.034Z,98011.86
2018-09-01T23:02:46.828Z,98007.58
2018-09-01T23:05:14.579Z,98016.70
2018-09-01T23:07:42.299Z,98015.66
2018-09-01T23:10:10.024Z,98014.32
2018-09-01T23:12:37.838Z,98005.70
2018-09-01T23:15:05.534Z,98014.86
2018-09-01T23:17:33.248Z,98012.16
2018-09-01T23:20:00.985Z,98014.86
2018-09-01T23:22:28.685Z,98016.78
2018-09-01T23:24:56.417Z,98020.82
2018-09-01T23:27:24.177Z,98015.98
2018-09-01T23:29:51.877Z,98016.78
2018-09-01T23:32:19.543Z,98017.87
2018-09-01T23:34:47.304Z,98018.98
2018-09-01T23:37:15.377Z,98014.40
2018-09-01T23:39:43.033Z,98012.25
2018-09-01T23:42:10.756Z,98014.94
2018-09-01T23:44:38.480Z,98008.44
2018-09-01T23:47:06.181Z,98005.52
2018-09-01T23:49:33.890Z,98003.63
2018-09-01T23:52:01.607Z,97995.86
2018-09-01T23:54:29.333Z,97996.31
2018-09-01T23:56:57.002Z,97996.63
2018-09-01T23:59:24.710Z,97992.59
